Time,TemperatureF,DewpointF,PressureIn,WindDirection,WindDirectionDegrees,WindSpeedMPH,WindSpeedGustMPH,Humidity,HourlyPrecipIn,Conditions,Clouds,dailyrainin,SolarRadiationWatts/m^2,SoftwareType,DateUTC
2013-07-09 00:02:00,69.0,68.0,-100.00,North,4,2.0,3.0,97,0.00,,,0.19,0.000000,,2013-07-09 05:02:00,
2013-07-09 00:10:00,69.0,68.0,-100.00,North,10,0.0,3.0,95,0.00,,,0.13,0.000000,,2013-07-09 05:10:00,
2013-07-09 00:42:00,69.0,68.0,-100.00,North,10,0.0,3.0,95,0.00,,,0.13,0.000000,,2013-07-09 05:42:00,
2013-07-09 00:52:00,69.0,68.0,-100.00,North,10,0.0,3.0,95,0.00,,,0.13,0.000000,,2013-07-09 05:52:00,
2013-07-09 01:01:00,69.0,68.0,-100.00,North,10,0.0,3.0,95,0.00,,,0.13,0.000000,,2013-07-09 06:01:00,
2013-07-09 01:10:00,67.0,66.0,-100.00,South,179,0.0,2.0,98,0.00,,,0.05,0.000000,,2013-07-09 06:10:00,
2013-07-09 01:43:00,67.0,66.0,-100.00,South,179,0.0,2.0,98,0.00,,,0.05,0.000000,,2013-07-09 06:43:00,
2013-07-09 01:53:00,67.0,66.0,-100.00,South,179,0.0,2.0,98,0.00,,,0.05,0.000000,,2013-07-09 06:53:00,
2013-07-09 02:02:00,67.0,66.0,-100.00,South,179,0.0,2.0,98,0.00,,,0.05,0.000000,,2013-07-09 07:02:00,
2013-07-09 02:10:00,66.0,65.0,-100.00,SSW,204,0.0,3.0,98,0.00,,,0.03,0.000000,,2013-07-09 07:10:00,
2013-07-09 02:43:00,66.0,65.0,-100.00,SSW,204,0.0,3.0,98,0.00,,,0.03,0.000000,,2013-07-09 07:43:00,
2013-07-09 02:53:00,66.0,65.0,-100.00,SSW,204,0.0,3.0,98,0.00,,,0.03,0.000000,,2013-07-09 07:53:00,
2013-07-09 03:01:00,66.0,65.0,-100.00,SSW,204,0.0,3.0,98,0.00,,,0.03,0.000000,,2013-07-09 08:01:00,
2013-07-09 03:10:00,66.0,66.0,-100.00,SE,133,0.0,1.0,99,0.00,,,0.00,0.000000,,2013-07-09 08:10:00,
2013-07-09 03:43:00,66.0,66.0,-100.00,SE,133,0.0,1.0,99,0.00,,,0.00,0.000000,,2013-07-09 08:43:00,
2013-07-09 03:52:00,66.0,66.0,-100.00,SE,133,0.0,1.0,99,0.00,,,0.00,0.000000,,2013-07-09 08:52:00,
2013-07-09 04:02:00,66.0,66.0,-100.00,SE,133,0.0,1.0,99,0.00,,,0.00,0.000000,,2013-07-09 09:02:00,
2013-07-09 04:10:00,65.0,65.0,-100.00,SE,133,0.0,0.0,99,0.00,,,0.00,0.000000,,2013-07-09 09:10:00,
2013-07-09 04:42:00,65.0,65.0,-100.00,SE,133,0.0,0.0,99,0.00,,,0.00,0.000000,,2013-07-09 09:42:00,
2013-07-09 04:53:00,65.0,65.0,-100.00,SE,133,0.0,0.0,99,0.00,,,0.00,0.000000,,2013-07-09 09:53:00,
2013-07-09 05:01:00,65.0,65.0,-100.00,SE,133,0.0,0.0,99,0.00,,,0.00,0.000000,,2013-07-09 10:01:00,
2013-07-09 05:10:00,67.0,67.0,-100.00,NNW,338,0.0,3.0,100,0.00,,,0.00,0.000000,,2013-07-09 10:10:00,
2013-07-09 05:42:00,67.0,67.0,-100.00,NNW,338,0.0,3.0,100,0.00,,,0.00,0.000000,,2013-07-09 10:42:00,
2013-07-09 05:52:00,67.0,67.0,-100.00,NNW,338,0.0,3.0,100,0.00,,,0.00,0.000000,,2013-07-09 10:52:00,
2013-07-09 06:01:00,67.0,67.0,-100.00,NNW,338,0.0,3.0,100,0.00,,,0.00,0.000000,,2013-07-09 11:01:00,
2013-07-09 06:10:00,68.0,68.0,-100.00,SE,131,0.0,5.0,100,0.00,,,0.00,11.000000,,2013-07-09 11:10:00,
2013-07-09 06:42:00,68.0,68.0,-100.00,SE,131,0.0,5.0,100,0.00,,,0.00,11.000000,,2013-07-09 11:42:00,
2013-07-09 06:53:00,68.0,68.0,-100.00,SE,131,0.0,5.0,100,0.00,,,0.00,11.000000,,2013-07-09 11:53:00,
2013-07-09 07:02:00,68.0,68.0,-100.00,SE,131,0.0,5.0,100,0.00,,,0.00,11.000000,,2013-07-09 12:02:00,
2013-07-09 07:10:00,71.0,69.0,-100.00,South,191,3.0,9.0,94,0.00,,,0.00,86.000000,,2013-07-09 12:10:00,
2013-07-09 07:43:00,71.0,69.0,-100.00,South,191,3.0,9.0,94,0.00,,,0.00,86.000000,,2013-07-09 12:43:00,
2013-07-09 07:53:00,71.0,69.0,-100.00,South,191,3.0,9.0,94,0.00,,,0.00,86.000000,,2013-07-09 12:53:00,
2013-07-09 08:01:00,71.0,69.0,-100.00,South,191,3.0,9.0,94,0.00,,,0.00,86.000000,,2013-07-09 13:01:00,
2013-07-09 08:10:00,71.0,69.0,-100.00,SSW,192,4.0,9.0,92,0.00,,,0.00,93.000000,,2013-07-09 13:10:00,
2013-07-09 08:43:00,71.0,69.0,-100.00,SSW,192,4.0,9.0,92,0.00,,,0.00,93.000000,,2013-07-09 13:43:00,
2013-07-09 08:53:00,71.0,69.0,-100.00,SSW,192,4.0,9.0,92,0.00,,,0.00,93.000000,,2013-07-09 13:53:00,
2013-07-09 09:01:00,71.0,69.0,-100.00,SSW,192,4.0,9.0,92,0.00,,,0.00,93.000000,,2013-07-09 14:01:00,
2013-07-09 09:10:00,73.0,69.0,-100.00,South,183,4.0,9.0,86,0.00,,,0.00,196.000000,,2013-07-09 14:10:00,
2013-07-09 09:43:00,73.0,69.0,-100.00,South,183,4.0,9.0,86,0.00,,,0.00,196.000000,,2013-07-09 14:43:00,
2013-07-09 09:53:00,73.0,69.0,-100.00,South,183,4.0,9.0,86,0.00,,,0.00,196.000000,,2013-07-09 14:53:00,
2013-07-09 10:02:00,73.0,69.0,-100.00,South,183,4.0,9.0,86,0.00,,,0.00,196.000000,,2013-07-09 15:02:00,
2013-07-09 10:10:00,76.0,69.0,-100.00,South,178,3.0,11.0,79,0.00,,,0.00,312.000000,,2013-07-09 15:10:00,
2013-07-09 10:43:00,76.0,69.0,-100.00,South,178,3.0,11.0,79,0.00,,,0.00,312.000000,,2013-07-09 15:43:00,
2013-07-09 10:52:00,76.0,69.0,-100.00,South,178,3.0,11.0,79,0.00,,,0.00,312.000000,,2013-07-09 15:52:00,
2013-07-09 11:02:00,76.0,69.0,-100.00,South,178,3.0,11.0,79,0.00,,,0.00,312.000000,,2013-07-09 16:02:00,
2013-07-09 11:10:00,76.0,70.0,-100.00,SSW,195,3.0,10.0,82,0.00,,,0.00,136.000000,,2013-07-09 16:10:00,
2013-07-09 11:43:00,76.0,70.0,-100.00,SSW,195,3.0,10.0,82,0.00,,,0.00,136.000000,,2013-07-09 16:43:00,
2013-07-09 11:53:00,76.0,70.0,-100.00,SSW,195,3.0,10.0,82,0.00,,,0.00,136.000000,,2013-07-09 16:53:00,
2013-07-09 12:02:00,76.0,70.0,-100.00,SSW,195,3.0,10.0,82,0.00,,,0.00,136.000000,,2013-07-09 17:02:00,
2013-07-09 12:10:00,76.0,69.0,-100.00,SSE,168,3.0,8.0,79,0.00,,,0.00,138.000000,,2013-07-09 17:10:00,
2013-07-09 12:45:00,76.0,69.0,-100.00,SSE,168,3.0,8.0,79,0.00,,,0.00,138.000000,,2013-07-09 17:45:00,
2013-07-09 12:53:00,76.0,69.0,-100.00,SSE,168,3.0,8.0,79,0.00,,,0.00,138.000000,,2013-07-09 17:53:00,
2013-07-09 13:02:00,76.0,69.0,-100.00,SSE,168,3.0,8.0,79,0.00,,,0.00,138.000000,,2013-07-09 18:02:00,
2013-07-09 13:10:00,73.0,70.0,-100.00,SSE,165,1.0,10.0,90,0.01,,,0.01,56.000000,,2013-07-09 18:10:00,
2013-07-09 13:43:00,73.0,70.0,-100.00,SSE,165,1.0,10.0,90,0.01,,,0.01,56.000000,,2013-07-09 18:43:00,
2013-07-09 13:52:00,73.0,70.0,-100.00,SSE,165,1.0,10.0,90,0.01,,,0.01,56.000000,,2013-07-09 18:52:00,
2013-07-09 14:01:00,73.0,70.0,-100.00,SSE,165,1.0,10.0,90,0.01,,,0.01,56.000000,,2013-07-09 19:01:00,
2013-07-09 14:10:00,71.0,70.0,-100.00,South,186,3.0,13.0,96,0.18,,,0.19,68.000000,,2013-07-09 19:10:00,
2013-07-09 14:42:00,71.0,70.0,-100.00,South,186,3.0,13.0,96,0.18,,,0.19,68.000000,,2013-07-09 19:42:00,
2013-07-09 14:52:00,71.0,70.0,-100.00,South,186,3.0,13.0,96,0.18,,,0.19,68.000000,,2013-07-09 19:52:00,
2013-07-09 15:01:00,71.0,70.0,-100.00,South,186,3.0,13.0,96,0.18,,,0.19,68.000000,,2013-07-09 20:01:00,
2013-07-09 15:10:00,72.0,70.0,-100.00,SSE,152,2.0,7.0,95,0.02,,,0.21,113.000000,,2013-07-09 20:10:00,
2013-07-09 15:43:00,72.0,70.0,-100.00,SSE,152,2.0,7.0,95,0.02,,,0.21,113.000000,,2013-07-09 20:43:00,
2013-07-09 15:52:00,72.0,70.0,-100.00,SSE,152,2.0,7.0,95,0.02,,,0.21,113.000000,,2013-07-09 20:52:00,
2013-07-09 16:01:00,72.0,70.0,-100.00,SSE,152,2.0,7.0,95,0.02,,,0.21,113.000000,,2013-07-09 21:01:00,
2013-07-09 16:10:00,76.0,73.0,-100.00,SSE,151,1.0,9.0,90,0.00,,,0.21,278.000000,,2013-07-09 21:10:00,
2013-07-09 16:43:00,76.0,73.0,-100.00,SSE,151,1.0,9.0,90,0.00,,,0.21,278.000000,,2013-07-09 21:43:00,
2013-07-09 16:52:00,76.0,73.0,-100.00,SSE,151,1.0,9.0,90,0.00,,,0.21,278.000000,,2013-07-09 21:52:00,
2013-07-09 17:01:00,76.0,73.0,-100.00,SSE,151,1.0,9.0,90,0.00,,,0.21,278.000000,,2013-07-09 22:01:00,
2013-07-09 17:10:00,72.0,70.0,-100.00,SW,219,5.0,14.0,94,0.13,,,0.34,105.000000,,2013-07-09 22:10:00,
2013-07-09 17:42:00,72.0,70.0,-100.00,SW,219,5.0,14.0,94,0.13,,,0.34,105.000000,,2013-07-09 22:42:00,
2013-07-09 17:53:00,72.0,70.0,-100.00,SW,219,5.0,14.0,94,0.13,,,0.34,105.000000,,2013-07-09 22:53:00,
2013-07-09 18:02:00,72.0,70.0,-100.00,SW,219,5.0,14.0,94,0.13,,,0.34,105.000000,,2013-07-09 23:02:00,
2013-07-09 18:10:00,74.0,70.0,-100.00,West,266,5.0,15.0,87,0.00,,,0.34,244.000000,,2013-07-09 23:10:00,
2013-07-09 18:43:00,74.0,70.0,-100.00,West,266,5.0,15.0,87,0.00,,,0.34,244.000000,,2013-07-09 23:43:00,
2013-07-09 18:53:00,74.0,70.0,-100.00,West,266,5.0,15.0,87,0.00,,,0.34,244.000000,,2013-07-09 23:53:00,
2013-07-09 19:01:00,74.0,70.0,-100.00,West,266,5.0,15.0,87,0.00,,,0.34,244.000000,,2013-07-10 00:01:00,
2013-07-09 19:10:00,73.0,69.0,-100.00,West,280,4.0,20.0,87,0.00,,,0.34,146.000000,,2013-07-10 00:10:00,
2013-07-09 19:43:00,73.0,69.0,-100.00,West,280,4.0,20.0,87,0.00,,,0.34,146.000000,,2013-07-10 00:43:00,
2013-07-09 19:52:00,73.0,69.0,-100.00,West,280,4.0,20.0,87,0.00,,,0.34,146.000000,,2013-07-10 00:52:00,
2013-07-09 20:01:00,73.0,69.0,-100.00,West,280,4.0,20.0,87,0.00,,,0.34,146.000000,,2013-07-10 01:01:00,
2013-07-09 20:10:00,71.0,67.0,-100.00,WNW,286,4.0,10.0,88,0.00,,,0.34,34.000000,,2013-07-10 01:10:00,
2013-07-09 20:43:00,71.0,67.0,-100.00,WNW,286,4.0,10.0,88,0.00,,,0.34,34.000000,,2013-07-10 01:43:00,
2013-07-09 20:53:00,71.0,67.0,-100.00,WNW,286,4.0,10.0,88,0.00,,,0.34,34.000000,,2013-07-10 01:53:00,
2013-07-09 21:02:00,71.0,67.0,-100.00,WNW,286,4.0,10.0,88,0.00,,,0.34,34.000000,,2013-07-10 02:02:00,
2013-07-09 21:10:00,70.0,67.0,-100.00,NW,310,4.0,11.0,89,0.00,,,0.34,4.000000,,2013-07-10 02:10:00,
2013-07-09 21:43:00,70.0,67.0,-100.00,NW,310,4.0,11.0,89,0.00,,,0.34,4.000000,,2013-07-10 02:43:00,
2013-07-09 21:53:00,70.0,67.0,-100.00,NW,310,4.0,11.0,89,0.00,,,0.34,4.000000,,2013-07-10 02:53:00,
2013-07-09 22:01:00,70.0,67.0,-100.00,NW,310,4.0,11.0,89,0.00,,,0.34,4.000000,,2013-07-10 03:01:00,
2013-07-09 22:10:00,68.0,65.0,-100.00,NW,317,3.0,9.0,90,0.00,,,0.34,0.000000,,2013-07-10 03:10:00,
2013-07-09 22:43:00,68.0,65.0,-100.00,NW,317,3.0,9.0,90,0.00,,,0.34,0.000000,,2013-07-10 03:43:00,
2013-07-09 22:52:00,68.0,65.0,-100.00,NW,317,3.0,9.0,90,0.00,,,0.34,0.000000,,2013-07-10 03:52:00,
2013-07-09 23:01:00,68.0,65.0,-100.00,NW,317,3.0,9.0,90,0.00,,,0.34,0.000000,,2013-07-10 04:01:00,
2013-07-09 23:10:00,68.0,66.0,-100.00,WSW,250,2.0,5.0,94,0.00,,,0.34,0.000000,,2013-07-10 04:10:00,
2013-07-09 23:33:00,68.0,66.0,-100.00,WSW,250,2.0,5.0,94,0.00,,,0.34,0.000000,,2013-07-10 04:33:00,
2013-07-09 23:43:00,68.0,66.0,-100.00,WSW,250,2.0,5.0,94,0.00,,,0.34,0.000000,,2013-07-10 04:43:00,
2013-07-09 23:52:00,68.0,66.0,-100.00,WSW,250,2.0,5.0,94,0.00,,,0.34,0.000000,,2013-07-10 04:52:00,